Aviation Digital Data Service (ADDS)

Output produced by METARs form (2114 UTC 20 November 2017)
found at http://www.aviationweather.gov/adds/metars/
 
KMSP 202053Z 21006KT 10SM OVC170 08/M01 A2946 RMK AO2 SLP983 T00781006 56014
KRNH 202055Z AUTO 19009KT 10SM CLR 06/M02 A2945 RMK AO2 T00631016